Time;durP1;ratioP1;P1;durP2;ratioP2;P2;SDS_P1;SDS_P2;PMS_P1;PMS_P2;Temp;Humidity;BMP_temperature;BMP_pressure;BME280_temperature;BME280_humidity;BME280_pressure;Samples;Min_cycle;Max_cycle;Signal;HPM_P1;HPM_P2
2021/01/16 00:00:18;;;;;;;3.30;1.07;;;;;;;18.16;47.59;101047.34;5093856;28;20024;-75
2021/01/16 00:02:44;;;;;;;2.83;1.05;;;;;;;18.14;47.31;101042.19;5093916;28;20024;-84
2021/01/16 00:05:10;;;;;;;9.40;1.25;;;;;;;18.24;47.12;101022.28;5093940;28;20031;-75
2021/01/16 00:07:36;;;;;;;5.15;1.10;;;;;;;18.38;47.04;101015.50;5075825;28;20056;-75
2021/01/16 00:10:02;;;;;;;2.67;1.10;;;;;;;18.32;47.03;101008.63;5093881;28;20109;-74
2021/01/16 00:12:28;;;;;;;2.17;0.95;;;;;;;18.43;46.70;101004.13;5093975;28;20479;-74
2021/01/16 00:14:53;;;;;;;2.42;0.98;;;;;;;18.44;46.63;100994.66;5093901;28;20070;-74
2021/01/16 00:17:19;;;;;;;5.13;0.88;;;;;;;18.43;47.05;100990.28;5094184;28;20028;-75
2021/01/16 00:19:44;;;;;;;6.05;1.42;;;;;;;18.40;46.88;100989.06;5093869;28;20028;-74
2021/01/16 00:22:10;;;;;;;2.17;0.80;;;;;;;18.41;46.87;100974.06;5094144;28;20028;-74
2021/01/16 00:24:36;;;;;;;7.10;1.77;;;;;;;18.46;46.70;100968.25;5093742;28;20055;-74
2021/01/16 00:27:01;;;;;;;4.38;0.90;;;;;;;18.63;46.29;100960.72;5093720;28;20044;-74
2021/01/16 00:29:27;;;;;;;3.58;1.08;;;;;;;18.46;47.03;100953.63;5093703;28;20031;-74
2021/01/16 00:31:52;;;;;;;3.97;0.88;;;;;;;18.54;46.74;100953.41;5093676;28;20500;-75
2021/01/16 00:34:18;;;;;;;3.42;1.08;;;;;;;18.45;46.97;100938.19;5092367;28;20031;-74
2021/01/16 00:36:43;;;;;;;2.08;0.85;;;;;;;18.66;46.26;100932.34;5091695;28;20080;-73
2021/01/16 00:39:09;;;;;;;4.30;1.20;;;;;;;18.64;46.46;100932.66;5092239;28;20040;-73
2021/01/16 00:41:35;;;;;;;1.98;0.70;;;;;;;18.69;46.23;100932.44;5092146;28;20389;-73
2021/01/16 00:44:00;;;;;;;2.88;1.05;;;;;;;18.76;46.21;100924.28;5093408;28;20035;-75
2021/01/16 00:46:26;;;;;;;1.95;0.63;;;;;;;18.51;46.67;100918.19;5092099;28;20032;-73
2021/01/16 00:48:51;;;;;;;4.93;0.70;;;;;;;18.50;46.93;100916.56;5093289;28;20028;-73
2021/01/16 00:51:17;;;;;;;2.15;1.10;;;;;;;18.55;46.89;100912.72;5093331;28;20056;-73
2021/01/16 00:53:42;;;;;;;1.35;0.55;;;;;;;18.60;46.56;100904.13;5091948;28;20024;-73
2021/01/16 00:56:08;;;;;;;1.67;0.50;;;;;;;18.38;47.22;100899.31;5093072;28;20054;-73
2021/01/16 00:58:34;;;;;;;1.70;0.50;;;;;;;18.46;47.20;100895.53;5093415;28;20027;-73
2021/01/16 01:00:59;;;;;;;0.82;0.60;;;;;;;18.43;47.17;100893.47;5093074;28;20028;-74
2021/01/16 01:03:25;;;;;;;2.28;0.70;;;;;;;18.54;46.96;100886.22;5091900;28;20138;-74
2021/01/16 01:05:51;;;;;;;2.30;0.80;;;;;;;18.77;46.32;100881.59;5091310;28;20135;-74
2021/01/16 01:08:28;;;;;;;1.02;0.65;;;;;;;18.73;46.47;100875.16;5091703;28;20367;-74
2021/01/16 01:10:54;;;;;;;1.98;0.63;;;;;;;18.70;46.60;100880.63;5093075;28;20035;-75
2021/01/16 01:13:19;;;;;;;1.40;0.65;;;;;;;18.77;46.41;100872.47;5092914;28;20028;-74
2021/01/16 01:15:45;;;;;;;1.83;1.15;;;;;;;18.82;46.07;100864.69;5092869;28;20081;-74
2021/01/16 01:18:11;;;;;;;2.25;0.73;;;;;;;18.81;46.43;100857.53;5091681;28;20028;-74
2021/01/16 01:20:37;;;;;;;2.33;0.80;;;;;;;18.85;46.12;100855.63;5093040;28;20128;-74
2021/01/16 01:23:03;;;;;;;2.28;0.80;;;;;;;19.00;45.85;100855.91;5092827;28;20474;-74
2021/01/16 01:25:28;;;;;;;3.05;0.60;;;;;;;18.97;46.19;100848.34;5092811;28;20034;-74
2021/01/16 01:27:56;;;;;;;1.95;0.95;;;;;;;18.89;46.05;100846.59;5093382;28;20028;-74
2021/01/16 01:30:25;;;;;;;3.00;0.50;;;;;;;18.64;46.85;100838.56;5092802;28;20031;-75
2021/01/16 01:32:51;;;;;;;1.52;0.40;;;;;;;18.99;46.53;100844.03;5091504;28;20046;-74
2021/01/16 01:35:18;;;;;;;0.25;0.20;;;;;;;19.03;46.96;100842.13;5092447;28;20055;-75
2021/01/16 01:37:46;;;;;;;0.75;0.30;;;;;;;19.48;46.03;100825.88;5092605;28;20485;-75
2021/01/16 01:40:13;;;;;;;0.10;0.10;;;;;;;19.49;46.25;100827.47;5092782;28;20644;-74
2021/01/16 01:42:40;;;;;;;1.25;0.20;;;;;;;19.64;45.99;100823.78;5092676;28;20024;-75
2021/01/16 01:45:08;;;;;;;0.28;0.22;;;;;;;19.36;46.98;100822.13;5092850;28;20032;-75
2021/01/16 01:47:44;;;;;;;0.73;0.40;;;;;;;19.68;45.97;100816.34;5091272;28;20044;-79
2021/01/16 01:50:13;;;;;;;0.47;0.32;;;;;;;20.02;45.09;100816.41;5092508;28;20035;-75
2021/01/16 01:52:40;;;;;;;0.10;0.10;;;;;;;19.53;46.54;100812.50;5092546;28;20032;-75
2021/01/16 01:55:10;;;;;;;0.20;0.20;;;;;;;19.31;47.35;100811.34;5092534;28;20031;-75
2021/01/16 01:57:38;;;;;;;0.20;0.20;;;;;;;19.33;47.43;100810.97;5092396;28;20042;-75
2021/01/16 02:00:06;;;;;;;1.15;0.20;;;;;;;19.60;46.75;100806.31;5091302;28;20569;-74
2021/01/16 02:02:35;;;;;;;0.30;0.20;;;;;;;19.44;47.34;100813.94;5092431;28;20390;-74
2021/01/16 02:05:02;;;;;;;0.88;0.17;;;;;;;19.68;46.53;100819.09;5092412;28;20032;-74
2021/01/16 02:07:40;;;;;;;1.05;0.30;;;;;;;19.48;47.18;100826.66;5092391;28;20563;-82
2021/01/16 02:10:19;;;;;;;0.32;0.25;;;;;;;19.60;46.82;100826.50;5092421;28;20036;-75
2021/01/16 02:12:45;;;;;;;0.40;0.40;;;;;;;19.79;46.46;100831.13;5092451;28;20040;-74
2021/01/16 02:15:21;;;;;;;0.82;0.25;;;;;;;19.99;46.25;100833.81;5092408;28;20112;-74
2021/01/16 02:17:53;;;;;;;0.73;0.30;;;;;;;19.88;46.34;100828.91;5093700;28;20028;-75
2021/01/16 02:20:28;;;;;;;1.20;0.30;;;;;;;19.77;46.78;100838.25;5097471;28;20020;-74
2021/01/16 02:23:20;;;;;;;0.30;0.30;;;;;;;19.68;47.16;100832.97;5096674;28;20036;-75
2021/01/16 02:25:53;;;;;;;0.70;0.30;;;;;;;19.60;47.42;100823.72;5096339;28;20028;-75
2021/01/16 02:28:23;;;;;;;0.38;0.38;;;;;;;19.75;46.97;100824.75;5094928;28;20047;-74
2021/01/16 02:30:51;;;;;;;1.33;0.70;;;;;;;19.89;46.65;100826.94;5096167;28;20016;-75
2021/01/16 02:33:19;;;;;;;0.40;0.30;;;;;;;19.59;47.59;100826.88;5094620;28;20027;-75
2021/01/16 02:36:01;;;;;;;0.60;0.35;;;;;;;19.74;47.16;100833.44;5095666;28;20139;-75
2021/01/16 02:38:56;;;;;;;1.40;0.43;;;;;;;19.90;46.69;100825.78;5095833;28;20114;-75
2021/01/16 02:41:59;;;;;;;0.45;0.40;;;;;;;19.91;46.67;100822.63;5096089;28;20012;-75
2021/01/16 02:44:36;;;;;;;0.28;0.28;;;;;;;19.80;46.97;100835.53;5095751;28;20055;-75
2021/01/16 02:47:32;;;;;;;0.40;0.30;;;;;;;19.69;47.55;100826.25;5095747;28;20024;-83
2021/01/16 02:50:07;;;;;;;0.63;0.43;;;;;;;19.76;47.06;100831.91;5095880;28;20020;-75
2021/01/16 02:52:44;;;;;;;0.52;0.50;;;;;;;19.66;47.57;100833.34;5077756;28;20121;-75
2021/01/16 02:55:10;;;;;;;0.50;0.50;;;;;;;19.85;46.92;100840.75;5094009;28;20025;-75
2021/01/16 02:57:35;;;;;;;0.38;0.38;;;;;;;19.86;47.13;100845.09;5090869;28;20539;-75
2021/01/16 03:00:04;;;;;;;0.95;0.70;;;;;;;19.92;46.91;100848.38;5095441;28;20102;-74
2021/01/16 03:02:30;;;;;;;0.60;0.60;;;;;;;19.78;47.40;100848.94;5095193;28;20028;-76
2021/01/16 03:04:56;;;;;;;0.77;0.70;;;;;;;19.84;47.32;100853.00;5094135;28;20164;-75
2021/01/16 03:07:22;;;;;;;0.70;0.70;;;;;;;19.92;47.04;100843.63;5095303;28;20081;-83
2021/01/16 03:09:48;;;;;;;1.05;0.73;;;;;;;19.65;47.93;100853.13;5095265;28;20025;-75
2021/01/16 03:12:14;;;;;;;0.70;0.70;;;;;;;19.79;47.50;100852.53;5095185;28;20493;-74
2021/01/16 03:15:10;;;;;;;1.02;0.60;;;;;;;19.52;48.27;100854.44;5095155;28;20031;-75
2021/01/16 03:17:54;;;;;;;0.50;0.50;;;;;;;19.33;48.75;100858.06;5093173;28;20048;-75
2021/01/16 03:20:22;;;;;;;1.45;0.57;;;;;;;19.25;48.87;100850.81;5095090;28;20386;-75
2021/01/16 03:22:52;;;;;;;0.30;0.30;;;;;;;19.18;48.88;100843.19;5093807;28;20032;-74
2021/01/16 03:25:19;;;;;;;0.40;0.40;;;;;;;19.51;47.82;100847.31;5095037;28;20115;-74
2021/01/16 03:27:46;;;;;;;1.13;0.65;;;;;;;19.39;48.03;100857.41;5094950;28;20036;-75
2021/01/16 03:30:13;;;;;;;0.50;0.50;;;;;;;19.14;48.54;100861.72;5094582;28;20020;-76
2021/01/16 03:32:40;;;;;;;0.40;0.40;;;;;;;19.29;48.43;100868.31;5094812;28;20020;-74
2021/01/16 03:35:06;;;;;;;0.77;0.65;;;;;;;19.33;47.95;100875.50;5094606;28;20495;-75
2021/01/16 03:37:32;;;;;;;0.80;0.40;;;;;;;18.85;49.34;100891.63;5094666;28;20028;-74
2021/01/16 03:39:57;;;;;;;1.83;0.65;;;;;;;18.24;50.43;100899.78;5094696;28;20069;-75
2021/01/16 03:42:23;;;;;;;1.67;0.90;;;;;;;18.57;48.88;100893.78;5094087;28;20031;-74
2021/01/16 03:44:49;;;;;;;2.65;0.90;;;;;;;18.00;48.62;100887.81;5093357;28;20028;-75
2021/01/16 03:47:14;;;;;;;1.95;0.80;;;;;;;18.08;48.49;100899.81;5094577;28;20447;-75
2021/01/16 03:49:40;;;;;;;3.03;0.80;;;;;;;18.60;46.60;100898.59;5094591;28;20024;-74
2021/01/16 03:52:06;;;;;;;6.38;1.30;;;;;;;18.19;47.25;100895.31;5094482;28;20466;-75
2021/01/16 03:54:32;;;;;;;2.17;1.10;;;;;;;18.24;46.77;100903.34;5094384;28;20043;-74
2021/01/16 03:56:58;;;;;;;4.32;1.10;;;;;;;18.42;46.32;100902.94;5094249;28;20040;-75
2021/01/16 03:59:23;;;;;;;3.03;0.60;;;;;;;18.17;46.94;100905.94;5094307;28;20429;-75
2021/01/16 04:01:50;;;;;;;3.88;0.98;;;;;;;18.25;46.41;100916.00;5094226;28;20028;-76
2021/01/16 04:04:15;;;;;;;2.83;0.98;;;;;;;18.16;46.46;100920.94;5094350;28;20031;-74
2021/01/16 04:06:41;;;;;;;4.05;0.95;;;;;;;18.35;46.06;100919.38;5094110;28;20478;-74
2021/01/16 04:09:07;;;;;;;3.65;0.85;;;;;;;18.22;46.55;100924.25;5094150;28;20031;-74
2021/01/16 04:11:33;;;;;;;7.43;1.00;;;;;;;18.12;46.48;100930.31;5094195;28;20020;-75
2021/01/16 04:13:59;;;;;;;5.85;1.48;;;;;;;17.91;46.96;100923.13;5094031;28;20039;-75
2021/01/16 04:16:26;;;;;;;4.45;0.93;;;;;;;18.02;46.68;100929.69;5092662;28;20036;-74
2021/01/16 04:18:53;;;;;;;2.53;1.13;;;;;;;17.66;47.65;100941.81;5092722;28;20035;-74
2021/01/16 04:21:19;;;;;;;5.55;1.27;;;;;;;17.80;47.19;100927.59;5093865;28;20024;-76
2021/01/16 04:23:44;;;;;;;8.20;1.77;;;;;;;17.98;46.71;100933.53;5093819;28;20486;-74
2021/01/16 04:26:10;;;;;;;4.85;0.93;;;;;;;18.12;46.62;100933.88;5094174;28;20103;-74
2021/01/16 04:28:36;;;;;;;6.90;1.45;;;;;;;18.24;45.86;100939.31;5093751;28;20486;-75
2021/01/16 04:31:01;;;;;;;8.52;1.52;;;;;;;18.02;46.41;100934.44;5093601;28;20035;-75
2021/01/16 04:33:27;;;;;;;3.13;0.98;;;;;;;17.90;46.21;100937.28;5093675;28;20032;-74
2021/01/16 04:35:52;;;;;;;5.10;1.52;;;;;;;17.35;47.11;100939.00;5092179;28;20502;-75
2021/01/16 04:38:18;;;;;;;5.35;1.30;;;;;;;17.86;45.85;100934.44;5093539;28;20034;-74
2021/01/16 04:40:44;;;;;;;7.95;1.50;;;;;;;17.96;45.34;100941.38;5091593;28;20111;-75
2021/01/16 04:43:12;;;;;;;7.65;1.70;;;;;;;17.68;45.87;100941.44;5093423;28;20024;-74
2021/01/16 04:45:39;;;;;;;5.85;1.45;;;;;;;17.60;45.97;100948.75;5093472;28;20056;-74
2021/01/16 04:48:08;;;;;;;4.65;1.15;;;;;;;17.59;46.11;100955.44;5093434;28;20036;-75
2021/01/16 04:50:43;;;;;;;7.55;1.95;;;;;;;17.31;46.54;100949.19;5093405;28;20484;-76
2021/01/16 04:53:09;;;;;;;10.77;1.65;;;;;;;17.50;46.04;100959.53;5093315;28;20020;-75
2021/01/16 04:55:38;;;;;;;11.40;1.85;;;;;;;17.69;45.17;100960.47;5091882;28;20028;-75
2021/01/16 04:58:04;;;;;;;5.35;1.42;;;;;;;17.65;45.50;100948.50;5093198;28;20024;-75
2021/01/16 05:00:33;;;;;;;7.10;2.03;;;;;;;17.72;45.15;100965.28;5093212;28;20117;-74
2021/01/16 05:03:04;;;;;;;7.45;2.97;;;;;;;17.81;45.09;100967.88;5093132;28;20024;-74
2021/01/16 05:05:30;;;;;;;3.17;1.13;;;;;;;17.53;45.57;100973.44;5091947;28;20501;-75
2021/01/16 05:07:56;;;;;;;8.35;1.85;;;;;;;17.88;44.83;100979.13;5093058;28;20031;-74
2021/01/16 05:10:23;;;;;;;8.23;1.30;;;;;;;17.73;45.00;100989.00;5091721;28;20115;-74
2021/01/16 05:13:03;;;;;;;9.30;1.70;;;;;;;17.94;44.82;100977.69;5093005;28;20032;-74
2021/01/16 05:15:31;;;;;;;6.13;1.48;;;;;;;17.60;45.51;100979.16;5092899;28;20481;-75
2021/01/16 05:18:05;;;;;;;8.90;1.90;;;;;;;17.85;44.62;100990.09;5092899;28;20028;-74
2021/01/16 05:20:32;;;;;;;9.98;1.98;;;;;;;17.70;45.13;100986.13;5093316;28;20020;-76
2021/01/16 05:23:15;;;;;;;8.38;1.65;;;;;;;17.60;45.30;100998.47;5092781;28;20081;-74
2021/01/16 05:25:49;;;;;;;6.15;2.05;;;;;;;17.82;44.44;101004.59;5092886;28;20106;-74
2021/01/16 05:28:17;;;;;;;8.15;1.60;;;;;;;17.92;44.33;101004.09;5074724;28;20042;-75
2021/01/16 05:30:48;;;;;;;6.03;1.58;;;;;;;18.07;43.85;100992.25;5092759;28;20024;-83
2021/01/16 05:33:14;;;;;;;6.75;1.40;;;;;;;17.78;44.49;101006.50;5092777;28;20028;-82
2021/01/16 05:35:40;;;;;;;8.55;2.20;;;;;;;17.55;44.77;101009.81;5092433;28;20586;-75
2021/01/16 05:38:07;;;;;;;6.80;1.48;;;;;;;17.54;45.03;100991.63;5092664;28;20028;-74
2021/01/16 05:40:34;;;;;;;7.50;2.15;;;;;;;17.79;44.43;101003.38;5092663;28;20028;-74
2021/01/16 05:43:00;;;;;;;11.07;1.48;;;;;;;17.85;44.46;101001.16;5092667;28;20052;-74
2021/01/16 05:45:27;;;;;;;6.95;2.10;;;;;;;17.99;44.04;100999.56;5091259;28;20066;-79
2021/01/16 05:47:53;;;;;;;8.90;2.40;;;;;;;17.81;44.09;100995.50;5091297;28;20111;-74
2021/01/16 05:50:23;;;;;;;6.47;1.52;;;;;;;17.72;44.33;100984.63;5092524;28;20028;-75
2021/01/16 05:52:49;;;;;;;7.28;1.92;;;;;;;17.98;43.39;100999.88;5094879;28;20070;-74
2021/01/16 05:55:17;;;;;;;11.40;2.30;;;;;;;17.57;44.41;101006.69;5096709;28;20036;-74
2021/01/16 05:57:47;;;;;;;9.23;1.98;;;;;;;17.87;43.63;100994.09;5095417;28;20032;-74
2021/01/16 06:00:22;;;;;;;;;;;;;;;17.54;44.39;100997.16;5097380;28;20024;-74
2021/01/16 06:02:51;;;;;;;13.13;2.70;;;;;;;17.63;43.81;101003.31;5095277;28;20293;-75
2021/01/16 06:05:24;;;;;;;8.57;2.35;;;;;;;17.24;44.83;101005.00;5095209;28;20028;-75
2021/01/16 06:07:54;;;;;;;11.80;1.83;;;;;;;17.43;44.42;101001.56;5096443;28;20032;-75
2021/01/16 06:10:21;;;;;;;9.48;2.80;;;;;;;17.59;43.97;101005.16;5096508;28;20024;-74
2021/01/16 06:12:49;;;;;;;10.85;2.28;;;;;;;17.33;44.50;101007.63;5095190;28;20043;-76
2021/01/16 06:15:17;;;;;;;11.60;2.50;;;;;;;17.45;44.14;101002.03;5096311;28;20111;-76
2021/01/16 06:17:45;;;;;;;13.38;2.90;;;;;;;16.95;45.23;101013.63;5096255;28;20023;-74
2021/01/16 09:48:06;;;;;;;16.40;7.57;;;;;;;15.94;49.49;101289.91;4929540;27;5102679;-83
2021/01/16 09:50:33;;;;;;;14.85;5.40;;;;;;;15.99;48.85;101295.25;5087388;28;20040;-90
2021/01/16 09:53:05;;;;;;;19.33;5.80;;;;;;;16.08;48.37;101302.28;5088699;28;20028;-82
2021/01/16 09:55:43;;;;;;;13.63;6.72;;;;;;;16.02;48.47;101308.34;5090675;28;20021;-91
2021/01/16 09:58:36;;;;;;;17.70;4.85;;;;;;;16.19;47.52;101313.75;5059610;28;20061;-90
2021/01/16 10:01:22;;;;;;;15.35;5.82;;;;;;;15.90;48.26;101317.34;5080048;28;20024;-89
2021/01/16 10:03:49;;;;;;;14.48;4.22;;;;;;;15.69;48.14;101319.28;5080679;28;20031;-86
2021/01/16 10:06:25;;;;;;;13.68;5.82;;;;;;;15.89;47.85;101320.44;5090114;28;20032;-92
2021/01/16 10:08:50;;;;;;;18.35;6.13;;;;;;;16.11;47.55;101327.59;5078444;28;20021;-90
2021/01/16 10:11:39;;;;;;;14.73;4.60;;;;;;;15.99;47.59;101331.88;5078929;28;20020;-81
2021/01/16 10:14:25;;;;;;;16.23;4.55;;;;;;;15.66;48.42;101350.25;5093589;28;20031;-93
2021/01/16 10:16:50;;;;;;;13.40;4.70;;;;;;;15.31;49.60;101342.09;5065840;28;20040;-82
2021/01/16 10:19:17;;;;;;;15.27;5.85;;;;;;;15.66;48.55;101347.50;5088809;28;20393;-84
2021/01/16 10:21:48;;;;;;;12.88;5.45;;;;;;;15.88;47.80;101347.19;5072466;28;20474;-92
2021/01/16 10:24:18;;;;;;;17.88;3.83;;;;;;;15.83;47.96;101350.16;5089622;28;20050;-92
2021/01/16 10:26:46;;;;;;;14.63;5.32;;;;;;;16.05;47.56;101357.31;5083755;28;20040;-87
2021/01/16 10:29:28;;;;;;;12.82;3.28;;;;;;;15.63;48.61;101361.91;5054533;28;20024;-90
2021/01/16 10:31:53;;;;;;;16.48;5.38;;;;;;;15.99;47.62;101364.16;5068001;28;20042;-87
2021/01/16 10:34:19;;;;;;;10.55;3.00;;;;;;;15.84;48.16;101362.78;5070744;28;20529;-89
2021/01/16 10:36:46;;;;;;;16.88;4.00;;;;;;;15.94;47.42;101375.34;5091707;28;20099;-88
2021/01/16 10:39:16;;;;;;;17.35;4.10;;;;;;;16.19;46.87;101379.09;5075946;28;20035;-89
2021/01/16 10:41:45;;;;;;;16.48;4.28;;;;;;;16.00;47.28;101366.56;5096894;28;20020;-81
2021/01/16 10:44:12;;;;;;;19.50;4.93;;;;;;;16.02;47.50;101358.78;5102753;28;20024;-81
2021/01/16 10:46:46;;;;;;;17.65;4.28;;;;;;;15.80;48.08;101378.38;5077840;28;20049;-89
2021/01/16 10:49:25;;;;;;;20.08;5.72;;;;;;;16.46;46.27;101381.31;5058179;28;20057;-89
2021/01/16 10:51:54;;;;;;;14.07;3.35;;;;;;;16.16;46.91;101382.50;5057859;28;20034;-81
2021/01/16 10:54:21;;;;;;;16.67;5.03;;;;;;;16.46;46.37;101394.28;5040594;28;20029;-81
2021/01/16 10:57:06;;;;;;;18.67;3.45;;;;;;;16.67;45.99;101389.56;5075944;28;20102;-90
2021/01/16 10:59:33;;;;;;;12.85;3.40;;;;;;;16.45;46.78;101393.47;5058041;28;20032;-82
2021/01/16 11:02:08;;;;;;;16.15;3.60;;;;;;;16.29;47.31;101409.03;5057807;28;20024;-86
2021/01/16 11:04:42;;;;;;;15.70;4.45;;;;;;;16.76;46.16;101412.41;5076634;28;20051;-88
2021/01/16 11:07:25;;;;;;;16.13;4.10;;;;;;;16.70;46.43;101399.16;5051279;28;20029;-90
2021/01/16 11:10:06;;;;;;;15.63;3.40;;;;;;;16.76;46.20;101420.69;5054923;28;20032;-82
2021/01/16 11:12:32;;;;;;;14.13;4.85;;;;;;;16.77;46.66;101415.97;5057925;28;20037;-85
2021/01/16 11:14:59;;;;;;;14.50;3.90;;;;;;;15.75;48.46;101412.44;5057512;28;20086;-84
2021/01/16 11:18:01;;;;;;;24.52;6.28;;;;;;;16.31;47.42;101412.25;5075423;28;20035;-82
2021/01/16 11:20:34;;;;;;;16.00;4.45;;;;;;;16.27;47.33;101403.03;5011512;28;20512;-90
2021/01/16 11:23:37;;;;;;;16.58;4.82;;;;;;;17.04;45.83;101426.44;5047217;28;20051;-88
2021/01/16 11:26:08;;;;;;;18.52;6.57;;;;;;;16.84;45.72;101410.72;5056252;28;20068;-83
2021/01/16 11:28:49;;;;;;;18.23;4.80;;;;;;;16.80;45.57;101407.84;5041218;28;20032;-91
2021/01/16 11:31:29;;;;;;;16.10;4.10;;;;;;;16.82;45.87;101413.00;5057230;28;20055;-81
2021/01/16 11:34:17;;;;;;;17.38;4.53;;;;;;;16.84;45.86;101424.50;5056210;28;20430;-87
2021/01/16 11:37:01;;;;;;;23.73;5.68;;;;;;;16.98;45.90;101422.25;5056864;28;20559;-87
2021/01/16 11:39:50;;;;;;;19.27;4.47;;;;;;;17.06;45.60;101413.09;5055674;28;20387;-84
2021/01/16 11:42:18;;;;;;;17.90;5.47;;;;;;;17.30;45.19;101411.53;5056200;28;20031;-84
2021/01/16 11:45:01;;;;;;;16.52;4.38;;;;;;;16.87;45.62;101429.38;5039441;28;20175;-85
2021/01/16 11:47:28;;;;;;;17.70;4.38;;;;;;;16.50;46.82;101420.88;5057681;28;20044;-86
2021/01/16 11:49:55;;;;;;;16.65;5.25;;;;;;;16.84;45.74;101425.31;5040625;28;20166;-83
2021/01/16 11:52:21;;;;;;;15.70;4.07;;;;;;;16.79;45.82;101430.25;5056893;28;20017;-86
2021/01/16 11:54:48;;;;;;;14.75;3.33;;;;;;;17.23;44.48;101433.38;5055335;28;20028;-83
2021/01/16 11:57:18;;;;;;;13.88;4.28;;;;;;;17.33;44.07;101441.25;5074484;28;20032;-90
2021/01/16 11:59:44;;;;;;;14.50;3.88;;;;;;;17.58;43.75;101442.91;5038390;28;20028;-88
2021/01/16 12:02:20;;;;;;;16.05;4.32;;;;;;;17.60;43.95;101425.97;5039091;28;20028;-89
2021/01/16 12:04:46;;;;;;;14.20;4.47;;;;;;;17.43;44.35;101438.03;5072552;28;20035;-92
2021/01/16 12:07:14;;;;;;;22.17;4.82;;;;;;;17.82;43.25;101444.91;5056211;28;20012;-88
2021/01/16 12:09:44;;;;;;;18.10;4.45;;;;;;;17.69;43.13;101446.03;5050861;28;20379;-90
2021/01/16 12:12:13;;;;;;;;;;;;;;;16.99;44.46;101443.19;5061120;28;20021;-81
2021/01/16 12:14:40;;;;;;;11.48;4.78;;;;;;;17.26;43.86;101443.75;5063595;28;19950;-87
2021/01/16 12:17:10;;;;;;;21.30;9.65;;;;;;;17.38;43.23;101449.31;5056978;28;20032;-90
2021/01/16 12:19:37;;;;;;;16.25;3.92;;;;;;;17.48;42.89;101455.22;5055051;28;20032;-87
2021/01/16 12:22:22;;;;;;;23.33;4.85;;;;;;;17.24;43.45;101443.31;5053818;28;20459;-87
2021/01/16 12:24:48;;;;;;;11.00;4.32;;;;;;;16.95;43.89;101450.56;5033669;28;20033;-87
2021/01/16 12:27:14;;;;;;;15.05;7.65;;;;;;;17.00;43.60;101458.63;5055509;28;20035;-91
2021/01/16 12:29:43;;;;;;;24.48;10.98;;;;;;;16.72;44.03;101454.81;5074261;28;20103;-89
2021/01/16 12:32:12;;;;;;;15.48;5.18;;;;;;;17.06;43.54;101464.75;5055717;28;20030;-90
2021/01/16 12:34:48;;;;;;;16.33;5.82;;;;;;;17.43;42.66;101457.38;5038968;28;20060;-88
2021/01/16 12:37:26;;;;;;;13.43;3.70;;;;;;;16.96;43.50;101449.41;5072029;28;20056;-92
2021/01/16 12:39:52;;;;;;;15.07;4.03;;;;;;;17.28;43.12;101467.13;5054587;28;20025;-92
2021/01/16 12:42:19;;;;;;;17.77;4.38;;;;;;;17.62;42.15;101457.66;5037041;28;20067;-89
2021/01/16 12:44:44;;;;;;;17.48;4.10;;;;;;;17.62;42.00;101451.31;5051211;28;20446;-84
2021/01/16 12:47:18;;;;;;;14.00;4.40;;;;;;;17.90;41.56;101463.34;5069134;28;20147;-84
2021/01/16 12:49:48;;;;;;;22.70;4.55;;;;;;;18.25;40.73;101457.34;5054525;28;20031;-89
2021/01/16 12:52:21;;;;;;;16.85;4.10;;;;;;;17.53;41.60;101450.59;5053422;28;20060;-85
2021/01/16 12:55:06;;;;;;;20.67;4.20;;;;;;;18.02;40.08;101445.97;5037650;28;20474;-93
2021/01/16 13:11:10;;;;;;;16.38;4.57;;;;;;;18.26;39.92;101453.41;4445615;27;19383761;-74
2021/01/16 13:14:03;;;;;;;19.20;4.95;;;;;;;18.30;40.00;101443.28;5138804;27;20031;-76
2021/01/16 13:16:49;;;;;;;19.42;6.28;;;;;;;18.06;39.85;101449.66;5138753;27;20397;-75
2021/01/16 13:19:49;;;;;;;18.95;5.57;;;;;;;18.14;39.20;101445.16;5129774;27;20129;-75
2021/01/16 13:22:26;;;;;;;21.65;6.72;;;;;;;18.03;39.64;101451.13;5098517;27;20130;-75
2021/01/16 13:25:06;;;;;;;16.92;5.65;;;;;;;18.12;39.59;101453.78;5083418;27;20071;-77
2021/01/16 13:27:34;;;;;;;13.05;4.70;;;;;;;18.27;39.53;101444.78;5098461;27;20056;-76
2021/01/16 13:30:16;;;;;;;19.13;5.60;;;;;;;18.15;39.80;101455.88;5097347;27;20075;-76
2021/01/16 13:32:44;;;;;;;25.73;5.43;;;;;;;18.08;39.81;101461.16;5104299;27;20396;-75
2021/01/16 13:35:16;;;;;;;21.60;6.03;;;;;;;18.00;39.59;101451.84;5101906;27;20114;-76
2021/01/16 13:37:42;;;;;;;17.48;4.53;;;;;;;18.13;39.41;101460.09;5105770;27;20043;-76
2021/01/16 13:40:14;;;;;;;29.00;6.28;;;;;;;17.15;40.86;101457.19;5105576;27;20092;-76
2021/01/16 13:42:42;;;;;;;27.08;5.88;;;;;;;17.59;39.80;101455.56;5112712;27;20092;-75
2021/01/16 13:45:09;;;;;;;17.25;6.00;;;;;;;17.69;39.39;101455.13;5131694;27;20102;-75
2021/01/16 13:47:35;;;;;;;33.13;9.07;;;;;;;17.69;39.12;101466.19;5133829;27;20024;-76
2021/01/16 13:50:20;;;;;;;21.08;7.75;;;;;;;17.91;38.17;101453.09;5131528;27;20038;-75
2021/01/16 13:52:51;;;;;;;17.95;8.15;;;;;;;17.81;37.44;101459.88;5125146;27;20051;-75
2021/01/16 13:55:28;;;;;;;20.80;6.05;;;;;;;17.32;37.38;101459.78;5128200;28;20038;-75
2021/01/16 13:58:03;;;;;;;23.60;6.57;;;;;;;17.51;36.81;101450.94;5128777;28;20077;-76
2021/01/16 14:00:30;;;;;;;22.30;5.03;;;;;;;17.69;36.95;101463.44;5128657;28;20450;-75
2021/01/16 14:02:57;;;;;;;16.88;5.32;;;;;;;17.96;36.31;101466.69;5127847;28;20545;-73
2021/01/16 14:05:29;;;;;;;24.90;5.15;;;;;;;17.95;36.01;101473.38;5127810;28;20023;-73
2021/01/16 14:07:56;;;;;;;18.63;4.28;;;;;;;17.93;36.04;101482.03;5129255;28;20084;-74
2021/01/16 14:10:26;;;;;;;26.40;6.20;;;;;;;17.84;35.75;101483.28;5105460;28;20126;-74
2021/01/16 14:13:12;;;;;;;15.75;5.03;;;;;;;18.09;36.30;101493.19;5115779;28;20031;-75
2021/01/16 14:16:12;;;;;;;26.88;6.35;;;;;;;17.99;35.92;101488.94;5115642;28;20024;-74
2021/01/16 14:18:40;;;;;;;28.55;6.60;;;;;;;18.32;35.92;101489.97;5115057;28;20040;-74
2021/01/16 14:21:16;;;;;;;24.80;6.10;;;;;;;17.71;36.22;101493.50;5115494;28;20019;-74
2021/01/16 14:23:41;;;;;;;25.33;5.43;;;;;;;17.84;36.02;101488.81;5115396;28;20044;-75
2021/01/16 14:26:22;;;;;;;20.52;6.38;;;;;;;17.86;35.79;101497.56;5121766;27;20066;-74
2021/01/16 14:28:52;;;;;;;26.25;6.22;;;;;;;18.13;35.69;101491.34;5112930;27;20035;-74
2021/01/16 14:31:24;;;;;;;21.65;4.82;;;;;;;18.22;35.04;101494.81;5135960;27;20019;-74
2021/01/16 14:33:58;;;;;;;31.52;7.03;;;;;;;18.01;35.05;101513.47;5135712;27;20031;-74
2021/01/16 14:36:25;;;;;;;30.90;8.35;;;;;;;18.16;34.92;101498.97;5112959;27;20027;-75
2021/01/16 14:39:06;;;;;;;20.95;6.22;;;;;;;17.59;35.37;101505.31;5058838;28;20035;-74
2021/01/16 14:41:51;;;;;;;18.88;5.55;;;;;;;17.48;35.65;101504.13;5077894;28;20840;-75
2021/01/16 14:44:24;;;;;;;23.95;6.38;;;;;;;17.80;35.08;101512.75;5105493;28;20015;-74
2021/01/16 14:46:58;;;;;;;28.35;6.55;;;;;;;17.94;35.11;101513.25;5102000;28;20655;-74
2021/01/16 14:49:32;;;;;;;20.85;5.68;;;;;;;17.59;34.64;101516.34;5096318;28;20016;-74
2021/01/16 14:52:19;;;;;;;21.10;4.80;;;;;;;17.45;34.56;101518.63;5097035;28;20385;-75
2021/01/16 14:54:50;;;;;;;19.75;4.88;;;;;;;17.55;34.50;101512.69;5098936;28;20093;-74
2021/01/16 14:57:17;;;;;;;17.35;4.47;;;;;;;17.41;34.74;101501.94;5098440;28;20015;-74
2021/01/16 14:59:43;;;;;;;19.42;5.43;;;;;;;17.42;34.39;101508.25;5099223;28;20488;-75
2021/01/16 15:02:20;;;;;;;17.23;6.20;;;;;;;17.44;34.22;101517.81;5098946;28;20373;-74
2021/01/16 15:04:46;;;;;;;24.83;6.35;;;;;;;17.11;35.14;101522.53;5098418;28;20026;-75
2021/01/16 15:07:23;;;;;;;32.20;6.03;;;;;;;17.49;34.47;101525.09;5098283;28;20072;-74
2021/01/16 15:09:55;;;;;;;20.80;6.63;;;;;;;17.27;34.87;101533.75;5097753;28;20035;-75
2021/01/16 15:12:21;;;;;;;26.98;6.47;;;;;;;17.46;34.65;101532.13;5097900;28;20015;-74
2021/01/16 15:14:48;;;;;;;42.08;8.70;;;;;;;17.51;34.86;101533.84;5103146;28;20024;-74
2021/01/16 15:17:13;;;;;;;28.98;5.88;;;;;;;17.45;34.90;101540.72;5096556;28;20028;-74
2021/01/16 15:19:39;;;;;;;17.80;4.85;;;;;;;17.55;34.60;101548.59;5084275;28;20086;-75